createdAt,value
2018-09-11T00:01:11.064Z,4.17
2018-09-11T00:03:14.503Z,5.70
2018-09-11T00:05:23.559Z,5.20
2018-09-11T00:07:26.614Z,5.60
2018-09-11T00:09:30.207Z,5.20
2018-09-11T00:11:32.323Z,5.37
2018-09-11T00:13:43.865Z,5.77
2018-09-11T00:15:48.794Z,5.20
2018-09-11T00:17:54.146Z,4.60
2018-09-11T00:19:56.999Z,5.53
2018-09-11T00:21:59.752Z,4.83
2018-09-11T00:24:02.473Z,4.77
2018-09-11T00:26:05.096Z,4.60
2018-09-11T00:28:08.137Z,4.53
2018-09-11T00:30:11.085Z,5.20
2018-09-11T00:32:14.001Z,4.60
2018-09-11T00:34:17.083Z,4.43
2018-09-11T00:36:21.054Z,5.27
2018-09-11T00:38:23.902Z,5.10
2018-09-11T00:40:26.993Z,4.40
2018-09-11T00:42:29.734Z,5.23
2018-09-11T00:44:32.733Z,4.20
2018-09-11T00:46:36.160Z,5.90
2018-09-11T00:48:38.874Z,4.60
2018-09-11T00:50:41.434Z,5.00
2018-09-11T00:52:44.476Z,4.37
2018-09-11T00:54:57.757Z,5.53
2018-09-11T00:57:01.798Z,4.87
2018-09-11T00:59:09.059Z,5.00
2018-09-11T01:01:11.957Z,4.97
2018-09-11T01:03:18.980Z,4.80
2018-09-11T01:05:22.038Z,5.17
2018-09-11T01:07:26.013Z,5.53
2018-09-11T01:09:28.170Z,5.10
2018-09-11T01:11:30.670Z,6.03
2018-09-11T01:13:33.256Z,5.17
2018-09-11T01:15:35.382Z,5.30
2018-09-11T01:17:37.619Z,5.23
2018-09-11T01:19:39.821Z,4.97
2018-09-11T01:21:41.990Z,5.50
2018-09-11T01:23:44.131Z,5.80
2018-09-11T01:25:46.539Z,5.47
2018-09-11T01:27:48.715Z,6.10
2018-09-11T01:29:50.871Z,6.90
2018-09-11T01:31:53.031Z,6.30
2018-09-11T01:33:55.225Z,6.23
2018-09-11T01:35:57.490Z,7.60
2018-09-11T01:37:59.798Z,7.30
2018-09-11T01:40:01.955Z,7.40
2018-09-11T01:42:04.097Z,6.93
2018-09-11T01:44:06.582Z,7.67
2018-09-11T01:46:08.724Z,7.00
2018-09-11T01:48:10.907Z,7.60
2018-09-11T01:50:13.398Z,8.03
2018-09-11T01:52:15.539Z,7.40
2018-09-11T01:54:17.694Z,6.87
2018-09-11T01:56:19.848Z,7.83
2018-09-11T01:58:22.799Z,6.60
2018-09-11T02:00:25.206Z,6.70
2018-09-11T02:02:27.587Z,6.83
2018-09-11T02:04:29.730Z,6.60
2018-09-11T02:06:31.888Z,7.40
2018-09-11T02:08:34.040Z,7.63
2018-09-11T02:10:36.180Z,6.90
2018-09-11T02:12:38.465Z,7.20
2018-09-11T02:14:41.145Z,7.70
2018-09-11T02:16:43.444Z,6.53
2018-09-11T02:18:45.603Z,7.03
2018-09-11T02:20:47.705Z,7.23
2018-09-11T02:22:49.879Z,6.23
2018-09-11T02:24:52.019Z,7.47
2018-09-11T02:26:54.164Z,6.50
2018-09-11T02:28:56.359Z,9.00
2018-09-11T02:30:58.508Z,7.33
2018-09-11T02:33:00.676Z,6.73
2018-09-11T02:35:02.879Z,6.93
2018-09-11T02:37:05.043Z,7.63
2018-09-11T02:39:09.013Z,6.50
2018-09-11T02:41:11.150Z,7.10
2018-09-11T02:43:13.287Z,7.10
2018-09-11T02:45:15.454Z,6.60
2018-09-11T02:47:17.645Z,6.97
2018-09-11T02:49:19.810Z,6.57
2018-09-11T02:51:22.293Z,7.00
2018-09-11T02:53:24.460Z,6.90
2018-09-11T02:55:26.577Z,7.20
2018-09-11T02:57:28.958Z,8.50
2018-09-11T02:59:31.094Z,8.77
2018-09-11T03:01:33.241Z,8.80
2018-09-11T03:03:35.405Z,8.53
2018-09-11T03:05:37.538Z,7.67
2018-09-11T03:07:39.673Z,7.80
2018-09-11T03:09:42.175Z,8.73
2018-09-11T03:11:44.338Z,8.10
2018-09-11T03:13:46.494Z,7.93
2018-09-11T03:15:48.649Z,8.27
2018-09-11T03:17:50.826Z,9.30
2018-09-11T03:19:53.007Z,8.77
2018-09-11T03:21:55.414Z,8.73
2018-09-11T03:23:57.553Z,8.17
2018-09-11T03:25:59.707Z,8.67
2018-09-11T03:28:01.887Z,8.57
2018-09-11T03:30:04.250Z,8.23
2018-09-11T03:32:06.401Z,9.00
2018-09-11T03:34:08.542Z,7.83
2018-09-11T03:36:10.702Z,8.40
2018-09-11T03:38:12.872Z,8.80
2018-09-11T03:40:15.365Z,7.70
2018-09-11T03:42:17.554Z,9.33
2018-09-11T03:44:19.772Z,8.83
2018-09-11T03:46:21.866Z,8.90
2018-09-11T03:48:24.023Z,8.87
2018-09-11T03:50:26.348Z,9.03
2018-09-11T03:52:28.506Z,8.80
2018-09-11T03:54:30.650Z,9.30
2018-09-11T03:56:32.769Z,8.90
2018-09-11T03:58:34.913Z,9.43
2018-09-11T04:00:37.034Z,9.03
2018-09-11T04:02:39.158Z,9.50
2018-09-11T04:04:41.706Z,10.80
2018-09-11T04:06:43.864Z,9.20
2018-09-11T04:08:46.006Z,9.43
2018-09-11T04:10:48.506Z,9.47
2018-09-11T04:12:50.634Z,10.33
2018-09-11T04:14:52.792Z,8.47
2018-09-11T04:16:54.950Z,10.63
2018-09-11T04:18:57.098Z,9.93
2018-09-11T04:20:59.272Z,8.50
2018-09-11T04:23:01.530Z,9.73
2018-09-11T04:25:03.688Z,8.50
2018-09-11T04:27:05.833Z,9.10
2018-09-11T04:29:08.030Z,9.27
2018-09-11T04:31:10.194Z,9.50
2018-09-11T04:33:12.363Z,8.30
2018-09-11T04:35:14.759Z,9.43
2018-09-11T04:37:16.958Z,8.00
2018-09-11T04:39:19.110Z,9.40
2018-09-11T04:41:21.517Z,9.10
2018-09-11T04:43:23.657Z,9.30
2018-09-11T04:45:25.799Z,10.10
2018-09-11T04:47:27.947Z,9.33
2018-09-11T04:49:30.096Z,9.13
2018-09-11T04:51:32.239Z,9.97
2018-09-11T04:53:34.547Z,9.93
2018-09-11T04:55:36.683Z,10.40
2018-09-11T04:57:38.827Z,9.87
2018-09-11T04:59:40.963Z,10.00
2018-09-11T05:01:43.127Z,9.97
2018-09-11T05:03:45.313Z,10.27
2018-09-11T05:05:47.462Z,10.20
2018-09-11T05:07:49.651Z,10.27
2018-09-11T05:09:52.112Z,10.13
2018-09-11T05:11:54.296Z,10.80
2018-09-11T05:13:56.426Z,11.70
2018-09-11T05:15:58.954Z,10.40
2018-09-11T05:18:01.134Z,9.97
2018-09-11T05:20:03.298Z,11.07
2018-09-11T05:22:05.610Z,10.60
2018-09-11T05:24:07.742Z,10.30
2018-09-11T05:26:09.849Z,10.33
2018-09-11T05:28:12.076Z,10.00
2018-09-11T05:30:15.413Z,10.53
2018-09-11T05:32:17.566Z,10.53
2018-09-11T05:34:19.671Z,9.40
2018-09-11T05:36:21.846Z,9.83
2018-09-11T05:38:23.990Z,8.57
2018-09-11T05:40:26.154Z,9.33
2018-09-11T05:42:28.278Z,8.63
2018-09-11T05:44:30.674Z,9.50
2018-09-11T05:46:32.843Z,9.17
2018-09-11T05:48:34.932Z,8.70
2018-09-11T05:50:37.366Z,9.90
2018-09-11T05:52:39.913Z,8.57
2018-09-11T05:54:42.060Z,7.97
2018-09-11T05:56:44.174Z,7.50
2018-09-11T05:58:46.299Z,8.30
2018-09-11T06:00:48.415Z,7.93
2018-09-11T06:02:50.584Z,7.50
2018-09-11T06:04:52.718Z,6.93
2018-09-11T06:06:54.830Z,7.47
2018-09-11T06:08:56.958Z,7.20
2018-09-11T06:10:59.090Z,7.10
2018-09-11T06:13:01.202Z,7.80
2018-09-11T06:15:03.738Z,6.77
2018-09-11T06:17:05.887Z,6.70
2018-09-11T06:19:08.050Z,6.57
2018-09-11T06:21:10.178Z,6.67
2018-09-11T06:23:12.434Z,6.83
2018-09-11T06:25:14.579Z,7.53
2018-09-11T06:27:16.698Z,7.50
2018-09-11T06:29:18.888Z,6.40
2018-09-11T06:31:20.975Z,6.73
2018-09-11T06:33:23.574Z,6.20
2018-09-11T06:35:25.765Z,5.80
2018-09-11T06:37:27.830Z,6.37
2018-09-11T06:39:30.316Z,5.87
2018-09-11T06:41:32.520Z,6.60
2018-09-11T06:43:34.715Z,6.03
2018-09-11T06:45:36.935Z,7.23
2018-09-11T06:47:39.091Z,6.60
2018-09-11T06:49:41.222Z,7.50
2018-09-11T06:51:43.358Z,6.43
2018-09-11T06:53:45.507Z,6.33
2018-09-11T06:55:47.630Z,6.30
2018-09-11T06:57:49.792Z,7.17
2018-09-11T06:59:51.918Z,6.00
2018-09-11T07:01:54.070Z,6.40
2018-09-11T07:03:56.511Z,7.07
2018-09-11T07:05:58.623Z,6.17
2018-09-11T07:08:00.750Z,6.80
2018-09-11T07:10:02.975Z,6.27
2018-09-11T07:12:07.579Z,6.10
2018-09-11T07:14:10.287Z,7.30
2018-09-11T07:16:13.122Z,5.90
2018-09-11T07:18:16.112Z,7.03
2018-09-11T07:20:19.843Z,6.03
2018-09-11T07:22:22.179Z,6.60
2018-09-11T07:24:25.526Z,7.70
2018-09-11T07:26:28.691Z,7.10
2018-09-11T07:28:31.611Z,7.33
2018-09-11T07:30:33.750Z,7.53
2018-09-11T07:32:36.222Z,7.20
2018-09-11T07:34:38.325Z,6.80
2018-09-11T07:36:40.447Z,6.33
2018-09-11T07:38:42.557Z,6.43
2018-09-11T07:40:44.909Z,8.67
2018-09-11T07:42:47.005Z,7.00
2018-09-11T07:44:49.125Z,7.90
2018-09-11T07:46:51.270Z,8.67
2018-09-11T07:48:53.399Z,7.87
2018-09-11T07:50:55.809Z,8.23
2018-09-11T07:52:58.002Z,8.47
2018-09-11T07:55:00.107Z,8.40
2018-09-11T07:57:02.277Z,7.93
2018-09-11T07:59:04.414Z,8.63
2018-09-11T08:01:06.883Z,10.60
2018-09-11T08:03:09.143Z,9.97
2018-09-11T08:05:11.279Z,9.00
2018-09-11T08:07:13.390Z,9.33
2018-09-11T08:09:15.538Z,9.20
2018-09-11T08:11:17.700Z,10.00
2018-09-11T08:13:19.839Z,9.60
2018-09-11T08:15:21.942Z,10.70
2018-09-11T08:17:24.056Z,10.73
2018-09-11T08:19:26.219Z,10.17
2018-09-11T08:21:28.362Z,11.17
2018-09-11T08:23:30.540Z,11.20
2018-09-11T08:25:32.846Z,11.00
2018-09-11T08:27:34.986Z,9.93
2018-09-11T08:29:37.095Z,9.93
2018-09-11T08:31:39.242Z,10.50
2018-09-11T08:33:41.389Z,10.37
2018-09-11T08:35:43.562Z,9.27
2018-09-11T08:37:45.722Z,9.67
2018-09-11T08:39:47.877Z,9.27
2018-09-11T08:41:50.015Z,10.17
2018-09-11T08:43:52.459Z,9.47
2018-09-11T08:45:54.624Z,9.90
2018-09-11T08:47:56.799Z,9.43
2018-09-11T08:49:59.031Z,9.47
2018-09-11T08:52:01.272Z,9.87
2018-09-11T08:54:03.350Z,11.27
2018-09-11T08:56:05.799Z,9.40
2018-09-11T08:58:08.000Z,9.90
2018-09-11T09:00:10.511Z,10.53
2018-09-11T09:02:12.676Z,8.53
2018-09-11T09:04:14.799Z,9.70
2018-09-11T09:06:16.926Z,8.50
2018-09-11T09:08:19.079Z,8.07
2018-09-11T09:10:21.215Z,8.80
2018-09-11T09:12:23.343Z,9.00
2018-09-11T09:14:25.468Z,8.00
2018-09-11T09:16:27.626Z,9.30
2018-09-11T09:18:29.791Z,8.60
2018-09-11T09:20:32.222Z,8.27
2018-09-11T09:22:34.355Z,7.40
2018-09-11T09:24:36.439Z,7.20
2018-09-11T09:26:38.592Z,7.33
2018-09-11T09:28:40.714Z,7.93
2018-09-11T09:30:42.842Z,7.70
2018-09-11T09:32:45.219Z,7.03
2018-09-11T09:34:47.338Z,7.00
2018-09-11T09:36:49.569Z,7.77
2018-09-11T09:38:51.937Z,6.77
2018-09-11T09:40:54.166Z,6.63
2018-09-11T09:42:56.319Z,7.30
2018-09-11T09:44:58.722Z,7.00
2018-09-11T09:47:00.887Z,7.00
2018-09-11T09:49:03.015Z,6.70
2018-09-11T09:51:05.154Z,6.10
2018-09-11T09:53:07.307Z,6.90
2018-09-11T09:55:09.425Z,6.60
2018-09-11T09:57:11.547Z,6.90
2018-09-11T09:59:13.918Z,5.90
2018-09-11T10:01:22.474Z,6.07
2018-09-11T10:03:24.855Z,6.50
2018-09-11T10:05:27.251Z,6.80
2018-09-11T10:07:29.369Z,6.03
2018-09-11T10:09:31.495Z,5.50
2018-09-11T10:11:33.931Z,6.57
2018-09-11T10:13:36.078Z,6.00
2018-09-11T10:15:38.194Z,5.30
2018-09-11T10:17:40.651Z,6.00
2018-09-11T10:19:42.762Z,5.90
2018-09-11T10:21:44.879Z,5.10
2018-09-11T10:23:47.125Z,5.33
2018-09-11T10:25:49.242Z,5.60
2018-09-11T10:27:51.394Z,6.23
2018-09-11T10:29:53.526Z,5.37
2018-09-11T10:31:55.912Z,5.17
2018-09-11T10:33:58.058Z,5.73
2018-09-11T10:36:00.322Z,6.53
2018-09-11T10:38:02.456Z,5.00
2018-09-11T10:40:04.622Z,5.33
2018-09-11T10:42:06.762Z,6.37
2018-09-11T10:44:08.901Z,5.27
2018-09-11T10:46:11.044Z,5.97
2018-09-11T10:48:13.506Z,6.00
2018-09-11T10:50:15.662Z,5.67
2018-09-11T10:52:17.774Z,6.00
2018-09-11T10:54:19.905Z,6.10
2018-09-11T10:56:22.045Z,5.80
2018-09-11T10:58:24.317Z,6.30
2018-09-11T11:00:27.008Z,5.60
2018-09-11T11:02:29.136Z,6.63
2018-09-11T11:04:31.367Z,5.80
2018-09-11T11:06:33.679Z,5.40
2018-09-11T11:08:36.279Z,6.30
2018-09-11T11:10:38.465Z,5.57
2018-09-11T11:12:40.634Z,6.30
2018-09-11T11:14:42.747Z,6.60
2018-09-11T11:16:45.042Z,6.40
2018-09-11T11:18:47.353Z,5.63
2018-09-11T11:20:49.498Z,7.10
2018-09-11T11:22:51.898Z,7.17
2018-09-11T11:24:54.030Z,6.10
2018-09-11T11:26:56.260Z,5.97
2018-09-11T11:28:58.424Z,5.90
2018-09-11T11:31:00.582Z,5.70
2018-09-11T11:33:02.746Z,5.37
2018-09-11T11:35:05.099Z,5.70
2018-09-11T11:37:07.345Z,5.93
2018-09-11T11:39:10.512Z,6.70
2018-09-11T11:41:12.629Z,6.83
2018-09-11T11:43:14.817Z,6.17
2018-09-11T11:45:16.948Z,5.93
2018-09-11T11:47:19.939Z,7.13
2018-09-11T11:49:22.066Z,6.00
2018-09-11T11:51:24.257Z,5.90
2018-09-11T11:53:26.406Z,6.50
2018-09-11T11:55:28.603Z,6.80
2018-09-11T11:57:31.431Z,6.23
2018-09-11T11:59:33.571Z,5.20
2018-09-11T12:01:35.788Z,6.23
2018-09-11T12:03:37.880Z,6.20
2018-09-11T12:05:40.029Z,5.90
2018-09-11T12:07:42.180Z,5.63
2018-09-11T12:09:44.298Z,5.83
2018-09-11T12:11:46.917Z,6.20
2018-09-11T12:13:49.054Z,7.00
2018-09-11T12:15:51.193Z,6.37
2018-09-11T12:17:53.447Z,5.33
2018-09-11T12:19:55.598Z,5.37
2018-09-11T12:21:57.746Z,5.80
2018-09-11T12:24:00.178Z,6.03
2018-09-11T12:26:02.330Z,5.80
2018-09-11T12:28:04.523Z,5.87
2018-09-11T12:30:06.978Z,6.20
2018-09-11T12:32:09.092Z,5.87
2018-09-11T12:34:11.236Z,6.03
2018-09-11T12:36:13.386Z,6.50
2018-09-11T12:38:15.932Z,5.33
2018-09-11T12:40:18.079Z,6.03
2018-09-11T12:42:20.459Z,6.87
2018-09-11T12:44:22.557Z,5.50
2018-09-11T12:46:24.925Z,5.87
2018-09-11T12:48:26.919Z,6.80
2018-09-11T12:50:28.967Z,7.07
2018-09-11T12:52:31.148Z,6.23
2018-09-11T12:54:33.197Z,6.70
2018-09-11T12:56:35.350Z,7.33
2018-09-11T12:58:37.479Z,7.60
2018-09-11T13:00:39.665Z,8.40
2018-09-11T13:02:41.787Z,7.57
2018-09-11T13:04:43.907Z,7.40
2018-09-11T13:06:46.082Z,7.37
2018-09-11T13:08:54.892Z,7.30
2018-09-11T13:10:57.175Z,7.43
2018-09-11T13:12:59.335Z,8.10
2018-09-11T13:15:01.480Z,7.40
2018-09-11T13:17:03.586Z,7.30
2018-09-11T13:19:05.753Z,7.10
2018-09-11T13:21:08.003Z,7.23
2018-09-11T13:23:10.138Z,8.97
2018-09-11T13:25:12.333Z,9.20
2018-09-11T13:27:14.449Z,8.50
2018-09-11T13:29:16.538Z,8.50
2018-09-11T13:31:18.679Z,8.57
2018-09-11T13:33:20.803Z,9.07
2018-09-11T13:35:22.962Z,9.60
2018-09-11T13:37:25.167Z,9.33
2018-09-11T13:39:27.282Z,9.73
2018-09-11T13:41:29.459Z,9.53
2018-09-11T13:43:31.648Z,9.10
2018-09-11T13:45:33.778Z,8.80
2018-09-11T13:47:35.920Z,10.10
2018-09-11T13:49:38.065Z,8.63
2018-09-11T13:51:40.219Z,9.43
2018-09-11T13:53:42.346Z,10.07
2018-09-11T13:55:44.647Z,10.33
2018-09-11T13:57:46.794Z,9.23
2018-09-11T13:59:49.084Z,9.80
2018-09-11T14:01:51.702Z,10.50
2018-09-11T14:03:53.828Z,9.30
2018-09-11T14:05:55.971Z,9.63
2018-09-11T14:07:58.174Z,10.30
2018-09-11T14:10:00.305Z,9.57
2018-09-11T14:12:02.475Z,9.27
2018-09-11T14:14:04.732Z,9.53
2018-09-11T14:16:06.915Z,10.00
2018-09-11T14:18:09.056Z,9.37
2018-09-11T14:20:11.374Z,9.80
2018-09-11T14:22:13.516Z,10.37
2018-09-11T14:24:15.638Z,9.80
2018-09-11T14:26:17.779Z,10.23
2018-09-11T14:28:19.898Z,11.23
2018-09-11T14:30:22.054Z,12.50
2018-09-11T14:32:24.189Z,12.57
2018-09-11T14:34:26.480Z,12.00
2018-09-11T14:36:28.544Z,11.90
2018-09-11T14:38:30.739Z,12.17
2018-09-11T14:40:32.874Z,12.30
2018-09-11T14:42:35.002Z,12.97
2018-09-11T14:44:37.163Z,13.30
2018-09-11T14:46:39.373Z,13.20
2018-09-11T14:48:41.439Z,15.10
2018-09-11T14:50:43.594Z,16.37
2018-09-11T14:52:45.695Z,23.00
2018-09-11T14:54:47.815Z,27.13
2018-09-11T14:56:49.975Z,29.80
2018-09-11T14:58:52.107Z,31.03
2018-09-11T15:00:54.238Z,30.10
2018-09-11T15:02:56.371Z,33.63
2018-09-11T15:04:58.515Z,35.13
2018-09-11T15:07:00.658Z,37.43
2018-09-11T15:09:04.003Z,38.23
2018-09-11T15:11:06.154Z,39.00
2018-09-11T15:13:08.283Z,38.90
2018-09-11T15:15:10.491Z,38.20
2018-09-11T15:17:12.563Z,40.97
2018-09-11T15:19:15.686Z,41.50
2018-09-11T15:21:17.826Z,47.63
2018-09-11T15:23:20.030Z,49.97
2018-09-11T15:25:22.215Z,53.17
2018-09-11T15:27:24.366Z,53.70
2018-09-11T15:29:26.508Z,50.80
2018-09-11T15:31:28.662Z,50.53
2018-09-11T15:33:30.848Z,50.17
2018-09-11T15:35:37.204Z,40.50
2018-09-11T15:37:39.373Z,38.10
2018-09-11T15:39:41.518Z,29.23
2018-09-11T15:41:43.667Z,25.07
2018-09-11T15:43:45.818Z,23.50
2018-09-11T15:45:47.950Z,20.27
2018-09-11T15:47:50.122Z,17.83
2018-09-11T15:49:52.282Z,14.70
2018-09-11T15:51:54.434Z,13.77
2018-09-11T15:53:56.855Z,12.77
2018-09-11T15:55:58.986Z,13.60
2018-09-11T15:58:01.147Z,12.00
2018-09-11T16:00:03.687Z,11.53
2018-09-11T16:02:05.956Z,12.50
2018-09-11T16:04:08.115Z,11.20
2018-09-11T16:06:10.611Z,10.90
2018-09-11T16:08:12.765Z,11.47
2018-09-11T16:10:14.882Z,11.87
2018-09-11T16:12:17.071Z,10.53
2018-09-11T16:14:19.178Z,12.40
2018-09-11T16:16:21.291Z,11.53
2018-09-11T16:18:23.568Z,10.90
2018-09-11T16:20:25.736Z,12.07
2018-09-11T16:22:28.000Z,12.10
2018-09-11T16:24:30.389Z,11.30
2018-09-11T16:26:32.922Z,11.10
2018-09-11T16:28:35.051Z,11.93
2018-09-11T16:30:37.491Z,11.33
2018-09-11T16:32:39.687Z,12.00
2018-09-11T16:34:41.867Z,11.40
2018-09-11T16:36:44.182Z,12.10
2018-09-11T16:38:46.331Z,12.70
2018-09-11T16:40:48.451Z,13.50
2018-09-11T16:42:50.569Z,12.67
2018-09-11T16:44:52.688Z,13.80
2018-09-11T16:46:54.812Z,12.53
2018-09-11T16:48:56.979Z,13.50
2018-09-11T16:50:59.078Z,13.53
2018-09-11T16:53:01.206Z,13.13
2018-09-11T16:55:03.373Z,13.23
2018-09-11T16:57:05.528Z,14.17
2018-09-11T16:59:07.634Z,13.00
2018-09-11T17:01:09.762Z,14.00
2018-09-11T17:03:11.876Z,12.63
2018-09-11T17:05:14.058Z,13.70
2018-09-11T17:07:16.242Z,12.10
2018-09-11T17:09:18.354Z,13.40
2018-09-11T17:11:20.561Z,12.37
2018-09-11T17:13:22.725Z,14.40
2018-09-11T17:15:24.830Z,14.10
2018-09-11T17:17:26.936Z,14.20
2018-09-11T17:19:29.332Z,13.93
2018-09-11T17:21:31.429Z,13.93
2018-09-11T17:23:33.594Z,15.17
2018-09-11T17:25:35.710Z,13.83
2018-09-11T17:27:37.830Z,13.63
2018-09-11T17:29:39.914Z,14.37
2018-09-11T17:31:42.300Z,14.17
2018-09-11T17:33:44.402Z,14.27
2018-09-11T17:35:46.569Z,15.10
2018-09-11T17:37:48.671Z,15.10
2018-09-11T17:39:50.862Z,15.37
2018-09-11T17:41:52.979Z,14.70
2018-09-11T17:43:55.081Z,14.17
2018-09-11T17:45:57.189Z,13.80
2018-09-11T17:47:59.290Z,15.70
2018-09-11T17:50:01.758Z,14.43
2018-09-11T17:52:03.967Z,13.83
2018-09-11T17:54:06.087Z,14.97
2018-09-11T17:56:08.221Z,13.80
2018-09-11T17:58:10.325Z,14.10
2018-09-11T18:00:12.479Z,14.07
2018-09-11T18:02:14.558Z,14.27
2018-09-11T18:04:16.666Z,14.80
2018-09-11T18:06:18.779Z,13.90
2018-09-11T18:08:20.926Z,12.70
2018-09-11T18:10:23.030Z,14.80
2018-09-11T18:12:25.135Z,14.17
2018-09-11T18:14:27.523Z,14.70
2018-09-11T18:16:29.631Z,14.50
2018-09-11T18:18:31.739Z,14.70
2018-09-11T18:20:33.819Z,15.17
2018-09-11T18:22:35.905Z,13.87
2018-09-11T18:24:38.034Z,14.87
2018-09-11T18:26:40.178Z,15.00
2018-09-11T18:28:42.310Z,14.67
2018-09-11T18:30:44.411Z,16.00
2018-09-11T18:32:46.586Z,14.90
2018-09-11T18:34:49.019Z,14.13
2018-09-11T18:36:51.251Z,16.47
2018-09-11T18:38:53.391Z,16.33
2018-09-11T18:40:55.507Z,14.67
2018-09-11T18:42:57.606Z,15.00
2018-09-11T18:44:59.773Z,15.57
2018-09-11T18:47:02.234Z,14.77
2018-09-11T18:49:04.629Z,13.77
2018-09-11T18:51:06.740Z,14.93
2018-09-11T18:53:08.934Z,15.33
2018-09-11T18:55:11.056Z,14.67
2018-09-11T18:57:13.203Z,15.67
2018-09-11T18:59:15.627Z,15.47
2018-09-11T19:01:17.742Z,14.83
2018-09-11T19:03:20.002Z,15.10
2018-09-11T19:05:22.134Z,15.40
2018-09-11T19:07:24.281Z,14.60
2018-09-11T19:09:26.530Z,15.03
2018-09-11T19:11:28.693Z,14.60
2018-09-11T19:13:30.843Z,14.77
2018-09-11T19:15:33.047Z,14.50
2018-09-11T19:17:35.162Z,14.43
2018-09-11T19:19:37.274Z,15.00
2018-09-11T19:21:39.381Z,14.80
2018-09-11T19:23:41.626Z,15.00
2018-09-11T19:25:43.742Z,14.30
2018-09-11T19:27:45.867Z,15.40
2018-09-11T19:29:48.302Z,15.40
2018-09-11T19:31:50.479Z,15.30
2018-09-11T19:33:52.670Z,13.53
2018-09-11T19:35:54.922Z,14.30
2018-09-11T19:37:57.084Z,14.10
2018-09-11T19:39:59.203Z,14.67
2018-09-11T19:42:01.358Z,13.30
2018-09-11T19:44:03.978Z,13.57
2018-09-11T19:46:06.970Z,13.23
2018-09-11T19:48:09.154Z,13.27
2018-09-11T19:50:11.562Z,14.73
2018-09-11T19:52:13.658Z,13.63
2018-09-11T19:54:15.783Z,13.63
2018-09-11T19:56:18.055Z,13.30
2018-09-11T19:58:20.201Z,12.90
2018-09-11T20:00:22.380Z,13.63
2018-09-11T20:02:24.740Z,12.57
2018-09-11T20:04:27.002Z,13.00
2018-09-11T20:06:29.215Z,12.80
2018-09-11T20:08:31.664Z,12.33
2018-09-11T20:10:33.802Z,12.70
2018-09-11T20:12:35.942Z,12.90
2018-09-11T20:14:38.197Z,11.80
2018-09-11T20:16:40.406Z,12.07
2018-09-11T20:18:42.631Z,12.33
2018-09-11T20:20:45.470Z,11.33
2018-09-11T20:22:47.654Z,11.13
2018-09-11T20:24:49.854Z,11.90
2018-09-11T20:26:52.062Z,10.17
2018-09-11T20:28:54.574Z,9.80
2018-09-11T20:30:56.738Z,9.57
2018-09-11T20:32:58.998Z,8.63
2018-09-11T20:35:01.156Z,9.40
2018-09-11T20:37:06.735Z,10.70
2018-09-11T20:39:10.394Z,8.90
2018-09-11T20:41:12.672Z,9.87
2018-09-11T20:43:14.934Z,10.00
2018-09-11T20:45:17.122Z,9.27
2018-09-11T20:47:19.241Z,9.77
2018-09-11T20:49:21.382Z,8.67
2018-09-11T20:51:23.541Z,9.60
2018-09-11T20:53:25.673Z,9.23
2018-09-11T20:55:27.798Z,10.23
2018-09-11T20:57:30.198Z,9.57
2018-09-11T20:59:32.340Z,10.17
2018-09-11T21:01:34.437Z,11.00
2018-09-11T21:03:36.590Z,10.80
2018-09-11T21:05:38.711Z,11.30
2018-09-11T21:07:40.851Z,10.57
2018-09-11T21:09:43.019Z,11.63
2018-09-11T21:11:45.162Z,11.53
2018-09-11T21:13:47.329Z,11.40
2018-09-11T21:15:49.499Z,11.47
2018-09-11T21:17:51.743Z,11.00
2018-09-11T21:19:54.174Z,11.80
2018-09-11T21:21:56.354Z,11.63
2018-09-11T21:23:58.667Z,11.50
2018-09-11T21:26:00.825Z,11.60
2018-09-11T21:28:03.036Z,12.40
2018-09-11T21:30:05.333Z,12.33
2018-09-11T21:32:07.526Z,13.87
2018-09-11T21:34:09.681Z,12.37
2018-09-11T21:36:12.129Z,12.80
2018-09-11T21:38:14.320Z,12.27
2018-09-11T21:40:16.731Z,12.13
2018-09-11T21:42:19.233Z,12.40
2018-09-11T21:44:21.582Z,12.77
2018-09-11T21:46:23.943Z,12.67
2018-09-11T21:48:26.434Z,12.90
2018-09-11T21:50:28.654Z,12.50
2018-09-11T21:52:30.811Z,12.90
2018-09-11T21:54:32.949Z,13.13
2018-09-11T21:56:35.152Z,12.53
2018-09-11T21:58:37.314Z,12.90
2018-09-11T22:00:45.181Z,12.10
2018-09-11T22:02:47.377Z,12.60
2018-09-11T22:04:49.586Z,12.40
2018-09-11T22:06:51.755Z,12.13
2018-09-11T22:08:53.923Z,13.47
2018-09-11T22:10:56.074Z,13.40
2018-09-11T22:12:58.233Z,12.13
2018-09-11T22:15:00.433Z,13.33
2018-09-11T22:17:02.610Z,14.00
2018-09-11T22:19:04.850Z,12.63
2018-09-11T22:21:07.290Z,12.93
2018-09-11T22:23:09.426Z,12.83
2018-09-11T22:25:11.591Z,12.70
2018-09-11T22:27:13.750Z,12.67
2018-09-11T22:29:15.935Z,12.70
2018-09-11T22:31:18.083Z,13.17
2018-09-11T22:33:20.651Z,13.50
2018-09-11T22:35:22.818Z,13.13
2018-09-11T22:37:24.949Z,14.50
2018-09-11T22:39:27.363Z,12.60
2018-09-11T22:41:29.539Z,13.77
2018-09-11T22:43:31.712Z,14.57
2018-09-11T22:45:34.094Z,14.60
2018-09-11T22:47:36.237Z,11.80
2018-09-11T22:49:38.967Z,11.53
2018-09-11T22:51:41.383Z,9.80
2018-09-11T22:53:43.573Z,9.47
2018-09-11T22:55:45.754Z,8.20
2018-09-11T22:57:47.946Z,6.97
2018-09-11T22:59:50.210Z,6.40
2018-09-11T23:01:52.377Z,6.53
2018-09-11T23:03:54.579Z,6.50
2018-09-11T23:05:56.719Z,5.90
2018-09-11T23:07:58.958Z,6.20
2018-09-11T23:10:01.445Z,5.27
2018-09-11T23:12:03.662Z,5.40
2018-09-11T23:14:05.983Z,5.77
2018-09-11T23:16:08.396Z,5.30
2018-09-11T23:18:10.641Z,5.37
2018-09-11T23:20:12.810Z,5.03
2018-09-11T23:22:14.943Z,5.33
2018-09-11T23:24:17.526Z,5.67
2018-09-11T23:26:19.712Z,5.57
2018-09-11T23:28:21.959Z,6.30
2018-09-11T23:30:24.147Z,5.70
2018-09-11T23:32:26.318Z,5.23
2018-09-11T23:34:28.484Z,4.90
2018-09-11T23:36:30.695Z,4.23
2018-09-11T23:38:32.908Z,4.13
2018-09-11T23:40:35.314Z,4.23
2018-09-11T23:42:37.455Z,3.70
2018-09-11T23:44:39.595Z,3.53
2018-09-11T23:46:41.766Z,3.67
2018-09-11T23:48:43.903Z,3.10
2018-09-11T23:50:46.050Z,3.10
2018-09-11T23:52:48.234Z,3.10
2018-09-11T23:54:50.449Z,3.23
2018-09-11T23:56:52.700Z,3.17
2018-09-11T23:58:54.887Z,3.07
